Time;durP1;ratioP1;P1;durP2;ratioP2;P2;SDS_P1;SDS_P2;PMS_P1;PMS_P2;Temp;Humidity;BMP_temperature;BMP_pressure;BME280_temperature;BME280_humidity;BME280_pressure;Samples;Min_cycle;Max_cycle;Signal;HPM_P1;HPM_P2
2022/08/24 00:00:14;;;;;;;;;;;;;;;23.11;64.08;99476.28;4481811;32;33884;-64
2022/08/24 00:02:42;;;;;;;;;;;;;;;23.08;63.85;99477.53;4481986;32;33010;-63
2022/08/24 00:05:10;;;;;;;;;;;;;;;22.79;65.03;99478.56;4474608;31;34047;-62
2022/08/24 00:07:41;;;;;;;;;;;;;;;23.06;64.26;99489.69;4477638;32;33412;-63
2022/08/24 00:10:09;;;;;;;;;;;;;;;23.23;63.61;99491.03;4472915;31;33962;-62
2022/08/24 00:12:36;;;;;;;;;;;;;;;22.61;65.63;99486.44;4478480;32;32548;-62
2022/08/24 00:15:04;;;;;;;;;;;;;;;23.04;64.39;99491.78;4469811;32;34328;-62
2022/08/24 00:17:33;;;;;;;;;;;;;;;23.47;62.62;99487.78;4477076;32;33023;-63
2022/08/24 00:20:01;;;;;;;;;;;;;;;23.05;64.19;99488.88;4478230;32;32915;-62
2022/08/24 00:22:28;;;;;;;;;;;;;;;22.99;64.31;99493.22;4475110;32;35163;-61
2022/08/24 00:24:56;;;;;;;;;;;;;;;22.99;64.51;99484.22;4478651;32;35341;-61
2022/08/24 00:27:23;;;;;;;;;;;;;;;23.30;63.33;99478.25;4479434;32;34613;-62
2022/08/24 00:29:51;;;;;;;;;;;;;;;23.17;63.75;99476.31;4479439;32;35136;-62
2022/08/24 00:32:18;;;;;;;;;;;;;;;22.65;65.29;99474.94;4466849;32;32754;-62
2022/08/24 00:34:46;;;;;;;;;;;;;;;22.45;66.09;99469.34;4468268;32;34134;-62
2022/08/24 00:37:26;;;;;;;;;;;;;;;22.32;66.75;99478.25;4476123;32;34450;-62
2022/08/24 00:39:53;;;;;;;;;;;;;;;23.16;63.98;99480.09;4471201;32;33963;-62
2022/08/24 00:42:20;;;;;;;;;;;;;;;22.47;65.93;99470.00;4478088;32;34373;-62
2022/08/24 00:44:48;;;;;;;;;;;;;;;22.69;65.48;99481.66;4480711;32;35090;-61
2022/08/24 00:47:17;;;;;;;;;;;;;;;22.80;65.36;99477.56;4478593;32;34156;-62
2022/08/24 00:49:48;;;;;;;;;;;;;;;22.67;65.64;99481.03;4471603;32;32740;-61
2022/08/24 00:52:19;;;;;;;;;;;;;;;22.34;66.87;99475.31;4478731;32;33128;-61
2022/08/24 00:54:57;;;;;;;;;;;;;;;22.45;66.68;99476.69;4475065;32;35703;-61
2022/08/24 00:57:26;;;;;;;;;;;;;;;22.44;66.78;99481.28;4479294;32;33252;-62
2022/08/24 00:59:55;;;;;;;;;;;;;;;22.17;67.63;99476.66;4482767;32;35599;-61
2022/08/24 01:02:24;;;;;;;;;;;;;;;22.22;67.86;99483.19;4477943;32;34794;-62
2022/08/24 01:04:56;;;;;;;;;;;;;;;22.24;67.82;99472.09;4469686;32;35166;-62
2022/08/24 01:07:27;;;;;;;;;;;;;;;21.89;69.10;99465.66;4468829;32;32994;-62
2022/08/24 01:09:55;;;;;;;;;;;;;;;21.84;69.49;99456.19;4480231;32;35433;-62
2022/08/24 01:12:23;;;;;;;;;;;;;;;22.00;69.07;99457.81;4477962;32;33562;-62
2022/08/24 01:14:50;;;;;;;;;;;;;;;22.27;67.73;99463.50;4469352;32;33827;-61
2022/08/24 01:20:06;;;;;;;;;;;;;;;22.03;68.86;99462.88;4471640;32;35326;-62
2022/08/24 01:22:40;;;;;;;;;;;;;;;22.40;67.49;99462.78;4471302;32;34063;-62
2022/08/24 01:25:08;;;;;;;;;;;;;;;22.92;65.43;99464.16;4483432;32;34066;-62
2022/08/24 01:27:36;;;;;;;;;;;;;;;22.63;66.33;99462.53;4477970;31;33611;-62
2022/08/24 01:30:05;;;;;;;;;;;;;;;22.36;67.41;99470.53;4472443;32;33785;-63
2022/08/24 01:32:32;;;;;;;;;;;;;;;22.81;65.86;99479.22;4472860;32;35380;-65
2022/08/24 01:35:00;;;;;;;;;;;;;;;23.04;64.87;99476.25;4476068;32;34605;-63
2022/08/24 01:37:27;;;;;;;;;;;;;;;22.68;66.14;99473.69;4477223;32;33061;-63
2022/08/24 01:39:55;;;;;;;;;;;;;;;22.07;68.58;99476.94;4478695;32;33803;-63
2022/08/24 01:42:28;;;;;;;;;;;;;;;22.69;66.03;99483.53;4471933;32;33554;-63
2022/08/24 01:44:55;;;;;;;;;;;;;;;22.74;65.68;99481.06;4466507;32;34292;-62
2022/08/24 01:47:23;;;;;;;;;;;;;;;22.89;65.37;99480.94;4475674;32;32826;-63
2022/08/24 01:49:51;;;;;;;;;;;;;;;22.98;64.93;99487.97;4478287;32;34564;-63
2022/08/24 01:52:20;;;;;;;;;;;;;;;22.64;66.28;99486.06;4480289;32;33975;-63
2022/08/24 01:54:48;;;;;;;;;;;;;;;23.22;64.11;99492.09;4475713;32;33754;-63
2022/08/24 01:57:19;;;;;;;;;;;;;;;23.23;63.99;99499.22;4483141;32;31983;-63
2022/08/24 01:59:49;;;;;;;;;;;;;;;22.78;65.48;99494.09;4476206;32;34279;-63
2022/08/24 02:02:17;;;;;;;;;;;;;;;22.96;65.05;99492.78;4481567;32;34384;-63
2022/08/24 02:04:44;;;;;;;;;;;;;;;22.28;67.51;99496.06;4476275;32;33257;-62
2022/08/24 02:07:12;;;;;;;;;;;;;;;22.18;68.06;99500.97;4478408;32;33135;-62
2022/08/24 02:09:40;;;;;;;;;;;;;;;22.74;65.96;99498.28;4480116;32;33831;-62
2022/08/24 02:12:08;;;;;;;;;;;;;;;22.91;65.07;99492.50;4483701;32;33903;-63
2022/08/24 02:14:35;;;;;;;;;;;;;;;22.82;65.44;99491.81;4468228;32;34935;-63
2022/08/24 02:17:03;;;;;;;;;;;;;;;22.81;65.52;99498.31;4482502;32;34192;-62
2022/08/24 02:19:31;;;;;;;;;;;;;;;22.47;66.58;99497.25;4479538;32;35097;-62
2022/08/24 02:21:59;;;;;;;;;;;;;;;22.88;65.31;99495.63;4480390;32;32813;-62
2022/08/24 02:24:27;;;;;;;;;;;;;;;23.01;64.71;99493.00;4479179;32;33757;-62
2022/08/24 02:26:54;;;;;;;;;;;;;;;22.50;66.68;99496.88;4479762;32;33012;-63
2022/08/24 02:29:22;;;;;;;;;;;;;;;22.89;64.94;99500.91;4478166;32;34213;-63
2022/08/24 02:31:50;;;;;;;;;;;;;;;22.95;65.06;99502.00;4477406;32;32947;-62
2022/08/24 02:34:17;;;;;;;;;;;;;;;22.13;68.08;99495.25;4481054;31;34045;-62
2022/08/24 02:36:45;;;;;;;;;;;;;;;22.25;67.57;99498.34;4481458;32;34308;-62
2022/08/24 02:39:12;;;;;;;;;;;;;;;21.60;70.25;99503.72;4482464;32;35293;-62
2022/08/24 02:41:40;;;;;;;;;;;;;;;21.70;69.96;99502.53;4481107;32;33149;-63
2022/08/24 02:44:08;;;;;;;;;;;;;;;21.44;71.29;99500.34;4482594;32;33874;-63
2022/08/24 02:46:35;;;;;;;;;;;;;;;21.48;71.01;99498.97;4483982;32;33503;-63
2022/08/24 02:49:04;;;;;;;;;;;;;;;22.09;68.54;99500.25;4472064;32;32805;-63
2022/08/24 02:51:40;;;;;;;;;;;;;;;22.13;68.36;99505.31;4481826;32;35449;-63
2022/08/24 02:54:12;;;;;;;;;;;;;;;21.83;69.21;99510.88;4483749;32;34368;-61
2022/08/24 02:56:39;;;;;;;;;;;;;;;22.07;68.69;99505.03;4477930;31;33453;-62
2022/08/24 02:59:06;;;;;;;;;;;;;;;21.49;71.32;99512.38;4476431;32;33581;-63
2022/08/24 03:01:34;;;;;;;;;;;;;;;21.56;71.29;99502.41;4476326;32;33851;-63
2022/08/24 03:04:02;;;;;;;;;;;;;;;22.00;69.25;99498.69;4480637;32;34092;-63
2022/08/24 03:06:29;;;;;;;;;;;;;;;22.20;68.45;99506.25;4481710;32;34013;-63
2022/08/24 03:08:57;;;;;;;;;;;;;;;21.82;70.03;99507.28;4478335;32;34062;-62
2022/08/24 03:11:24;;;;;;;;;;;;;;;21.54;71.50;99504.47;4481535;32;34543;-62
2022/08/24 03:13:55;;;;;;;;;;;;;;;21.71;70.59;99504.25;4478333;32;34509;-63
2022/08/24 03:16:23;;;;;;;;;;;;;;;21.63;70.77;99500.59;4482151;32;34514;-63
2022/08/24 03:18:51;;;;;;;;;;;;;;;21.89;69.92;99504.63;4474339;32;34004;-62
2022/08/24 03:21:18;;;;;;;;;;;;;;;22.00;69.52;99498.69;4477275;32;34157;-63
2022/08/24 03:23:46;;;;;;;;;;;;;;;21.44;71.56;99501.19;4483358;32;34237;-62
2022/08/24 03:26:13;;;;;;;;;;;;;;;21.72;70.80;99497.75;4482666;32;32120;-63
2022/08/24 03:28:41;;;;;;;;;;;;;;;21.54;71.52;99501.75;4479079;32;33903;-63
2022/08/24 03:31:11;;;;;;;;;;;;;;;21.48;71.96;99494.34;4480513;32;35258;-63
2022/08/24 03:33:39;;;;;;;;;;;;;;;21.86;70.29;99499.56;4475867;32;33933;-63
2022/08/24 03:36:07;;;;;;;;;;;;;;;21.77;70.73;99506.22;4477749;32;31784;-63
2022/08/24 03:38:40;;;;;;;;;;;;;;;21.85;70.48;99511.50;4480148;32;34171;-63
2022/08/24 03:41:08;;;;;;;;;;;;;;;22.52;67.65;99499.38;4477621;32;34247;-63
2022/08/24 03:43:46;;;;;;;;;;;;;;;22.09;69.41;99500.25;4483652;32;33336;-63
2022/08/24 03:46:15;;;;;;;;;;;;;;;22.19;68.67;99497.22;4473068;32;34557;-63
2022/08/24 03:48:43;;;;;;;;;;;;;;;21.99;69.34;99502.47;4480151;32;34225;-63
2022/08/24 03:51:11;;;;;;;;;;;;;;;22.19;68.60;99499.09;4481275;32;34145;-63
2022/08/24 03:53:39;;;;;;;;;;;;;;;22.23;68.44;99500.41;4484414;32;33989;-63
2022/08/24 03:56:10;;;;;;;;;;;;;;;21.99;69.12;99497.00;4482109;32;33286;-63
2022/08/24 03:58:37;;;;;;;;;;;;;;;22.03;69.01;99492.00;4469212;32;33558;-63
2022/08/24 04:01:05;;;;;;;;;;;;;;;22.35;67.71;99498.84;4480029;32;33086;-62
2022/08/24 04:03:40;;;;;;;;;;;;;;;22.14;68.28;99505.09;4480392;32;34091;-62
2022/08/24 04:06:08;;;;;;;;;;;;;;;22.50;67.01;99498.72;4481370;32;33179;-63
2022/08/24 04:08:39;;;;;;;;;;;;;;;22.00;69.10;99501.41;4474459;32;34195;-63
2022/08/24 04:11:15;;;;;;;;;;;;;;;22.56;66.98;99493.31;4474829;32;35540;-63
2022/08/24 04:13:43;;;;;;;;;;;;;;;22.73;66.12;99506.69;4476478;32;33896;-63
2022/08/24 04:16:12;;;;;;;;;;;;;;;22.83;65.90;99498.97;4482150;32;34319;-63
2022/08/24 04:18:40;;;;;;;;;;;;;;;22.63;66.54;99504.31;4483342;32;34331;-63
2022/08/24 04:21:19;;;;;;;;;;;;;;;22.67;66.54;99507.47;4478676;32;35234;-63
2022/08/24 04:23:46;;;;;;;;;;;;;;;22.91;65.67;99497.97;4476489;32;35241;-63
2022/08/24 04:26:15;;;;;;;;;;;;;;;23.02;65.17;99501.03;4475671;32;33430;-63
2022/08/24 04:28:58;;;;;;;;;;;;;;;22.28;67.80;99501.50;4481225;32;34186;-63
2022/08/24 04:31:26;;;;;;;;;;;;;;;22.92;65.66;99495.06;4482092;32;34172;-63
2022/08/24 04:33:54;;;;;;;;;;;;;;;22.97;65.47;99502.66;4482216;32;33920;-63
2022/08/24 04:36:22;;;;;;;;;;;;;;;23.00;65.13;99496.81;4476189;32;33619;-64
2022/08/24 04:38:49;;;;;;;;;;;;;;;22.72;66.00;99502.25;4480178;32;32925;-63
2022/08/24 04:41:20;;;;;;;;;;;;;;;23.23;64.36;99501.97;4477138;32;33527;-62
2022/08/24 04:43:58;;;;;;;;;;;;;;;23.04;64.85;99500.81;4473270;32;33900;-63
2022/08/24 04:46:26;;;;;;;;;;;;;;;23.14;64.57;99494.97;4473051;32;34598;-63
2022/08/24 04:48:54;;;;;;;;;;;;;;;23.28;64.15;99498.63;4480401;32;34967;-63
2022/08/24 04:51:21;;;;;;;;;;;;;;;22.79;65.73;99498.53;4479113;32;34016;-63
2022/08/24 04:53:49;;;;;;;;;;;;;;;23.35;63.80;99494.03;4482565;32;35209;-62
2022/08/24 04:56:18;;;;;;;;;;;;;;;22.65;66.52;99498.63;4481958;32;33434;-62
2022/08/24 04:58:46;;;;;;;;;;;;;;;22.73;66.39;99507.53;4479451;32;33478;-62
2022/08/24 05:01:15;;;;;;;;;;;;;;;23.15;64.87;99510.34;4478375;32;32896;-62
2022/08/24 05:03:44;;;;;;;;;;;;;;;22.80;66.00;99510.28;4478995;32;34271;-62
2022/08/24 05:06:14;;;;;;;;;;;;;;;22.76;65.98;99501.66;4480448;32;33443;-62
2022/08/24 05:08:42;;;;;;;;;;;;;;;23.11;64.99;99503.56;4476001;32;34868;-62
2022/08/24 05:11:10;;;;;;;;;;;;;;;23.46;63.68;99505.19;4476597;32;34283;-62
2022/08/24 05:13:37;;;;;;;;;;;;;;;23.55;63.43;99502.31;4479679;32;33733;-65
2022/08/24 05:16:06;;;;;;;;;;;;;;;23.98;62.31;99502.03;4479464;32;32022;-65
2022/08/24 05:18:33;;;;;;;;;;;;;;;24.01;61.92;99504.34;4473470;32;34293;-65
2022/08/24 05:21:01;;;;;;;;;;;;;;;23.46;63.74;99490.72;4473371;32;34215;-65
2022/08/24 05:23:29;;;;;;;;;;;;;;;23.97;62.13;99509.38;4472888;32;32896;-65
2022/08/24 05:26:04;;;;;;;;;;;;;;;23.60;63.37;99503.38;4483854;32;32990;-64
2022/08/24 05:28:34;;;;;;;;;;;;;;;23.71;63.34;99507.44;4484450;32;34001;-63
2022/08/24 05:31:09;;;;;;;;;;;;;;;24.03;62.11;99505.00;4470107;32;35215;-63
2022/08/24 05:33:37;;;;;;;;;;;;;;;24.25;61.42;99501.00;4483450;32;32897;-63
2022/08/24 05:36:13;;;;;;;;;;;;;;;23.76;62.95;99507.66;4480199;32;34351;-64
2022/08/24 05:38:40;;;;;;;;;;;;;;;24.27;61.49;99515.34;4479188;32;32919;-62
2022/08/24 05:41:08;;;;;;;;;;;;;;;24.07;61.61;99511.72;4483270;32;35901;-62
2022/08/24 05:43:36;;;;;;;;;;;;;;;24.54;60.75;99512.63;4482308;32;34110;-62
2022/08/24 05:46:04;;;;;;;;;;;;;;;25.06;59.07;99506.22;4480790;32;33284;-63
2022/08/24 05:48:33;;;;;;;;;;;;;;;25.00;58.53;99506.25;4483592;32;32566;-63
2022/08/24 05:51:03;;;;;;;;;;;;;;;25.25;58.22;99500.94;4476875;32;35068;-61
2022/08/24 05:53:32;;;;;;;;;;;;;;;25.21;58.08;99500.53;4478997;32;32792;-62
2022/08/24 05:56:02;;;;;;;;;;;;;;;25.39;57.87;99507.22;4473711;32;33766;-63
2022/08/24 05:58:29;;;;;;;;;;;;;;;25.04;58.74;99504.75;4470065;32;32445;-61
2022/08/24 06:00:58;;;;;;;;;;;;;;;25.53;57.17;99503.38;4477759;31;35316;-64
2022/08/24 06:03:26;;;;;;;;;;;;;;;25.27;58.02;99502.41;4473235;32;34089;-63
2022/08/24 06:05:54;;;;;;;;;;;;;;;25.20;58.09;99506.22;4479016;32;34460;-63
2022/08/24 06:08:22;;;;;;;;;;;;;;;25.16;58.42;99499.50;4474010;32;34157;-62
2022/08/24 06:10:50;;;;;;;;;;;;;;;25.03;58.44;99498.44;4473628;31;34342;-62
2022/08/24 06:13:17;;;;;;;;;;;;;;;24.83;59.46;99501.22;4472710;32;33994;-62
2022/08/24 06:15:45;;;;;;;;;;;;;;;24.76;59.88;99491.34;4478103;32;33570;-62
2022/08/24 06:18:33;;;;;;;;;;;;;;;24.87;59.90;99496.16;4480932;32;33952;-62
2022/08/24 06:21:05;;;;;;;;;;;;;;;25.04;59.47;99499.28;4478385;32;34264;-63
2022/08/24 06:23:32;;;;;;;;;;;;;;;25.07;59.35;99510.66;4472930;31;35287;-62
2022/08/24 06:28:50;;;;;;;;;;;;;;;25.41;58.11;99513.31;4481764;31;34226;-62
2022/08/24 06:31:19;;;;;;;;;;;;;;;24.96;59.85;99515.94;4470636;32;32743;-62
2022/08/24 06:33:46;;;;;;;;;;;;;;;25.06;59.09;99510.88;4475419;31;33242;-62
2022/08/24 06:36:14;;;;;;;;;;;;;;;25.39;58.23;99509.94;4481295;32;32335;-62
2022/08/24 06:38:42;;;;;;;;;;;;;;;25.52;58.05;99518.09;4480574;31;34477;-62
2022/08/24 06:41:13;;;;;;;;;;;;;;;25.05;59.34;99517.41;4478420;32;33179;-62
2022/08/24 06:43:40;;;;;;;;;;;;;;;25.54;58.05;99521.47;4475972;31;35239;-62
2022/08/24 06:46:08;;;;;;;;;;;;;;;25.82;57.18;99512.13;4481458;32;32242;-62
2022/08/24 06:48:38;;;;;;;;;;;;;;;26.02;56.66;99519.13;4468037;32;34060;-63
2022/08/24 06:51:08;;;;;;;;;;;;;;;25.85;57.35;99517.16;4477884;32;35880;-62
2022/08/24 06:53:37;;;;;;;;;;;;;;;25.56;58.56;99517.47;4478930;32;34644;-62
2022/08/24 06:56:06;;;;;;;;;;;;;;;26.02;57.16;99521.03;4477376;31;32990;-62
2022/08/24 06:58:34;;;;;;;;;;;;;;;26.06;57.08;99521.44;4480799;32;34134;-62
2022/08/24 07:01:16;;;;;;;;;;;;;;;26.22;56.22;99524.47;4472995;31;33060;-63
2022/08/24 07:03:45;;;;;;;;;;;;;;;26.10;56.81;99519.94;4472814;32;33869;-63
2022/08/24 07:06:14;;;;;;;;;;;;;;;26.28;56.28;99528.25;4475737;31;33320;-63
2022/08/24 07:08:41;;;;;;;;;;;;;;;25.94;57.21;99524.91;4479707;32;34291;-62
2022/08/24 07:11:09;;;;;;;;;;;;;;;25.93;57.45;99528.69;4479172;31;33899;-63
2022/08/24 07:13:37;;;;;;;;;;;;;;;26.22;57.03;99531.88;4477521;32;35287;-62
2022/08/24 07:16:05;;;;;;;;;;;;;;;26.38;56.36;99533.25;4473373;31;33110;-63
2022/08/24 07:18:33;;;;;;;;;;;;;;;25.73;57.23;99547.12;4477838;32;35363;-63
2022/08/24 07:21:01;;;;;;;;;;;;;;;26.32;56.14;99545.09;4479855;32;35436;-62
2022/08/24 07:23:30;;;;;;;;;;;;;;;26.14;56.50;99554.94;4479685;31;34071;-63
2022/08/24 07:26:10;;;;;;;;;;;;;;;26.53;55.82;99555.75;4467258;32;33169;-63
2022/08/24 07:28:51;;;;;;;;;;;;;;;26.68;55.32;99555.44;4473721;32;32919;-63
2022/08/24 07:31:20;;;;;;;;;;;;;;;26.68;54.69;99559.00;4469454;32;224578;-63
2022/08/24 07:33:48;;;;;;;;;;;;;;;26.74;55.03;99559.16;4475843;31;32281;-63
2022/08/24 07:36:16;;;;;;;;;;;;;;;26.78;55.48;99560.41;4478293;32;33494;-62
2022/08/24 07:38:51;;;;;;;;;;;;;;;26.97;54.70;99564.88;4470432;31;33866;-63
2022/08/24 07:41:19;;;;;;;;;;;;;;;26.96;54.37;99568.66;4477916;32;33137;-62
2022/08/24 07:44:07;;;;;;;;;;;;;;;27.04;54.02;99565.66;4476239;31;34053;-62
2022/08/24 07:46:35;;;;;;;;;;;;;;;27.04;54.32;99571.12;4473382;32;32332;-63
2022/08/24 07:49:02;;;;;;;;;;;;;;;27.05;54.14;99566.47;4467668;32;33920;-62
2022/08/24 07:51:47;;;;;;;;;;;;;;;27.34;52.79;99570.44;4479460;32;35976;-62
2022/08/24 07:54:14;;;;;;;;;;;;;;;27.07;53.08;99567.09;4478667;31;35309;-62
2022/08/24 07:56:42;;;;;;;;;;;;;;;27.15;53.01;99567.66;4476239;32;34304;-62
2022/08/24 07:59:09;;;;;;;;;;;;;;;26.82;53.19;99569.88;4481405;32;34038;-63
2022/08/24 08:01:40;;;;;;;;;;;;;;;27.36;52.35;99573.81;4477007;31;34027;-62
2022/08/24 08:04:09;;;;;;;;;;;;;;;26.79;54.42;99582.13;4477555;32;34293;-62
2022/08/24 08:06:36;;;;;;;;;;;;;;;26.95;51.70;99578.00;4480233;31;33426;-62
2022/08/24 08:09:04;;;;;;;;;;;;;;;26.55;52.37;99578.34;4468714;32;33858;-62
2022/08/24 08:11:32;;;;;;;;;;;;;;;27.14;52.25;99581.66;4478873;31;33720;-62
2022/08/24 08:13:59;;;;;;;;;;;;;;;26.57;52.60;99581.69;4478412;32;32767;-62
2022/08/24 08:16:26;;;;;;;;;;;;;;;26.87;52.55;99584.63;4478174;31;33169;-62
2022/08/24 08:18:54;;;;;;;;;;;;;;;27.18;51.48;99583.69;4477798;32;35256;-62
2022/08/24 08:24:29;;;;;;;;;;;;;;;27.38;50.99;99578.00;4479744;32;34812;-62
2022/08/24 08:26:57;;;;;;;;;;;;;;;27.02;52.20;99576.00;4479768;31;34216;-62
2022/08/24 08:29:25;;;;;;;;;;;;;;;26.92;52.44;99578.44;4474482;32;33964;-62
2022/08/24 08:31:52;;;;;;;;;;;;;;;26.93;52.30;99577.34;4473684;32;33646;-62
2022/08/24 08:34:20;;;;;;;;;;;;;;;27.06;51.57;99577.25;4474491;31;34074;-62
2022/08/24 08:36:48;;;;;;;;;;;;;;;27.06;52.08;99579.13;4474954;32;34162;-62
2022/08/24 08:39:16;;;;;;;;;;;;;;;27.05;51.84;99588.47;4476621;31;33880;-62
2022/08/24 08:41:51;;;;;;;;;;;;;;;26.87;52.45;99590.09;4478934;32;33814;-62
2022/08/24 08:44:38;;;;;;;;;;;;;;;26.79;52.12;99595.03;4477733;31;34284;-62
2022/08/24 08:47:24;;;;;;;;;;;;;;;27.05;52.17;99602.19;4477083;32;32978;-62
2022/08/24 08:49:55;;;;;;;;;;;;;;;26.56;52.77;99601.12;4480171;31;34095;-62
2022/08/24 08:52:35;;;;;;;;;;;;;;;26.92;52.40;99603.16;4476744;32;34202;-62
2022/08/24 08:55:15;;;;;;;;;;;;;;;27.12;51.60;99591.97;4467931;32;35088;-62
2022/08/24 08:57:50;;;;;;;;;;;;;;;27.18;51.65;99599.34;4466338;32;33348;-62
2022/08/24 09:00:21;;;;;;;;;;;;;;;27.22;52.28;99594.22;4468189;31;34073;-62
2022/08/24 09:03:25;;;;;;;;;;;;;;;27.14;52.03;99589.87;4472596;32;36582;-62
2022/08/24 09:06:11;;;;;;;;;;;;;;;26.57;52.66;99600.06;4428361;32;33998;-62
2022/08/24 09:09:03;;;;;;;;;;;;;;;27.07;51.43;99606.41;4478388;31;33003;-62
2022/08/24 09:11:34;;;;;;;;;;;;;;;27.08;51.77;99601.75;4477714;31;34178;-62
2022/08/24 09:14:02;;;;;;;;;;;;;;;27.55;51.49;99602.13;4477132;32;33339;-62
2022/08/24 09:16:51;;;;;;;;;;;;;;;27.51;51.20;99600.91;4474516;31;34003;-62
2022/08/24 09:19:23;;;;;;;;;;;;;;;27.45;51.34;99593.56;4480434;32;31922;-62
2022/08/24 09:22:07;;;;;;;;;;;;;;;27.87;50.44;99598.19;4469998;32;34194;-62
2022/08/24 09:24:37;;;;;;;;;;;;;;;27.82;49.79;99594.44;4473503;32;34345;-62
2022/08/24 09:27:05;;;;;;;;;;;;;;;28.22;48.13;99594.75;4473647;31;33998;-62
2022/08/24 09:29:45;;;;;;;;;;;;;;;28.49;48.28;99586.97;4469187;32;32946;-62
2022/08/24 09:32:23;;;;;;;;;;;;;;;28.52;48.20;99591.16;4475849;31;34231;-62
2022/08/24 09:34:58;;;;;;;;;;;;;;;28.25;48.62;99590.66;4469101;32;34289;-62
2022/08/24 09:37:26;;;;;;;;;;;;;;;28.41;47.98;99584.56;4478408;32;33128;-62
2022/08/24 09:39:59;;;;;;;;;;;;;;;28.43;48.32;99585.16;4482815;32;34556;-62
2022/08/24 09:42:46;;;;;;;;;;;;;;;28.77;47.33;99580.78;4482722;32;32863;-62
2022/08/24 09:45:29;;;;;;;;;;;;;;;28.92;47.08;99583.06;4482361;32;34601;-62
2022/08/24 09:48:05;;;;;;;;;;;;;;;29.12;46.33;99580.00;4481100;32;34357;-62
2022/08/24 09:50:40;;;;;;;;;;;;;;;28.95;47.58;99588.09;4475345;32;32113;-62
2022/08/24 09:53:07;;;;;;;;;;;;;;;28.89;46.84;99572.56;4476951;32;34637;-62
2022/08/24 09:55:35;;;;;;;;;;;;;;;28.46;46.87;99570.91;4479339;32;34672;-62
2022/08/24 09:58:06;;;;;;;;;;;;;;;28.89;45.92;99564.28;4471859;32;34122;-63
2022/08/24 10:00:43;;;;;;;;;;;;;;;28.45;46.81;99571.16;4474910;32;33222;-62
2022/08/24 10:03:22;;;;;;;;;;;;;;;28.93;45.29;99559.13;4467914;32;32784;-62
2022/08/24 10:06:21;;;;;;;;;;;;;;;28.72;45.56;99564.13;4469915;32;34459;-62
2022/08/24 10:09:01;;;;;;;;;;;;;;;29.10;45.34;99557.34;4473454;32;34168;-63
2022/08/24 10:11:31;;;;;;;;;;;;;;;29.15;44.88;99563.00;4481306;32;32904;-62
2022/08/24 10:14:21;;;;;;;;;;;;;;;29.10;44.68;99559.28;4482465;32;32690;-63
2022/08/24 10:17:01;;;;;;;;;;;;;;;29.16;44.93;99550.87;4472331;32;34598;-62
2022/08/24 10:19:48;;;;;;;;;;;;;;;28.96;43.89;99556.75;4473070;32;33462;-62
2022/08/24 10:22:15;;;;;;;;;;;;;;;28.63;44.22;99559.22;4475529;32;32820;-62
2022/08/24 10:25:21;;;;;;;;;;;;;;;28.77;44.38;99558.75;4480433;32;34156;-62
2022/08/24 10:28:09;;;;;;;;;;;;;;;29.04;44.26;99566.56;4415995;32;32904;-62
2022/08/24 10:30:39;;;;;;;;;;;;;;;28.84;45.39;99568.81;4396056;32;34812;-62
2022/08/24 10:33:18;;;;;;;;;;;;;;;28.95;44.49;99577.06;4442685;32;32228;-62
2022/08/24 10:35:52;;;;;;;;;;;;;;;29.18;43.73;99567.16;4476862;32;34235;-62
2022/08/24 10:41:19;;;;;;;;;;;;;;;29.21;44.70;99572.19;4471931;32;32779;-62
2022/08/24 10:44:06;;;;;;;;;;;;;;;28.89;44.96;99574.44;4467108;32;32975;-63
2022/08/24 10:46:37;;;;;;;;;;;;;;;28.56;44.47;99582.19;4471581;32;32419;-62
2022/08/24 10:49:23;;;;;;;;;;;;;;;28.63;44.58;99578.47;4475453;31;35445;-62
2022/08/24 10:52:12;;;;;;;;;;;;;;;28.89;44.62;99575.31;4473438;32;34005;-62
2022/08/24 10:54:40;;;;;;;;;;;;;;;28.94;44.67;99571.81;4474381;31;32957;-63
2022/08/24 10:57:14;;;;;;;;;;;;;;;28.71;45.92;99578.16;4472034;32;32729;-62
2022/08/24 11:00:00;;;;;;;;;;;;;;;28.86;45.06;99573.03;4469059;32;33519;-62
2022/08/24 11:02:29;;;;;;;;;;;;;;;29.10;45.69;99575.81;4476071;32;32793;-62
2022/08/24 11:04:58;;;;;;;;;;;;;;;28.61;45.82;99575.16;4471325;32;31924;-62
2022/08/24 11:07:25;;;;;;;;;;;;;;;28.52;46.48;99578.22;4472945;31;33402;-62
2022/08/24 11:09:57;;;;;;;;;;;;;;;28.81;46.31;99583.06;4479476;32;33991;-63
2022/08/24 11:12:25;;;;;;;;;;;;;;;28.97;46.35;99574.94;4466111;32;33932;-63
2022/08/24 11:14:53;;;;;;;;;;;;;;;28.97;45.79;99582.37;4480979;32;34705;-63
2022/08/24 11:17:22;;;;;;;;;;;;;;;27.97;50.08;99577.53;4474790;31;31635;-63
2022/08/24 11:19:50;;;;;;;;;;;;;;;28.51;49.40;99575.72;4465134;32;34018;-63
2022/08/24 11:22:39;;;;;;;;;;;;;;;28.78;49.13;99570.59;4472823;32;34158;-64
2022/08/24 11:25:15;;;;;;;;;;;;;;;28.96;49.11;99570.50;4472304;32;31960;-64
2022/08/24 11:27:44;;;;;;;;;;;;;;;28.85;50.20;99581.50;4464104;32;33848;-63
2022/08/24 11:30:18;;;;;;;;;;;;;;;28.51;51.24;99579.31;4478205;32;34152;-64
2022/08/24 11:32:49;;;;;;;;;;;;;;;28.93;50.43;99573.75;4475400;31;33024;-64
2022/08/24 11:35:16;;;;;;;;;;;;;;;28.96;50.87;99583.44;4467882;32;31875;-64
2022/08/24 11:37:44;;;;;;;;;;;;;;;28.79;51.37;99575.88;4479234;32;33414;-64
2022/08/24 11:40:11;;;;;;;;;;;;;;;28.55;52.33;99582.44;4477712;32;33763;-64
2022/08/24 11:42:52;;;;;;;;;;;;;;;28.82;51.61;99590.25;4478575;32;32739;-64
2022/08/24 11:45:22;;;;;;;;;;;;;;;28.27;52.75;99589.37;4467169;32;33303;-64
2022/08/24 11:48:08;;;;;;;;;;;;;;;28.25;53.39;99588.78;4474980;32;33503;-63
2022/08/24 11:50:39;;;;;;;;;;;;;;;27.84;54.24;99576.63;4467227;32;33955;-63
2022/08/24 11:53:41;;;;;;;;;;;;;;;28.01;54.17;99581.50;4466683;32;33763;-64
2022/08/24 11:56:13;;;;;;;;;;;;;;;27.29;56.47;99586.78;4447982;32;33470;-64
2022/08/24 11:58:43;;;;;;;;;;;;;;;26.58;58.91;99594.34;4478588;32;33920;-64
2022/08/24 12:01:13;;;;;;;;;;;;;;;26.73;58.85;99590.44;4468524;32;34226;-64
2022/08/24 12:03:44;;;;;;;;;;;;;;;25.92;61.04;99598.31;4464830;32;33139;-64
2022/08/24 12:06:18;;;;;;;;;;;;;;;25.49;63.40;99596.13;4467673;32;33110;-64
2022/08/24 12:08:50;;;;;;;;;;;;;;;24.97;66.53;99605.22;4478771;32;33890;-64
2022/08/24 12:11:25;;;;;;;;;;;;;;;25.79;64.13;99623.84;4476061;31;32837;-64
2022/08/24 12:13:58;;;;;;;;;;;;;;;25.84;63.82;99631.44;4463494;32;34569;-65
2022/08/24 12:16:32;;;;;;;;;;;;;;;25.88;62.12;99631.88;4474938;32;33195;-64
2022/08/24 12:19:26;;;;;;;;;;;;;;;24.96;60.50;99625.47;4471846;32;34132;-63
2022/08/24 12:21:54;;;;;;;;;;;;;;;25.39;59.97;99627.75;4472272;31;35643;-63
2022/08/24 12:24:25;;;;;;;;;;;;;;;25.33;61.51;99621.25;4455102;32;33326;-63
2022/08/24 12:26:56;;;;;;;;;;;;;;;25.63;61.01;99632.53;4473297;31;32493;-63
2022/08/24 12:29:28;;;;;;;;;;;;;;;25.69;62.77;99626.19;4465008;32;33236;-63
2022/08/24 12:31:56;;;;;;;;;;;;;;;25.53;64.94;99621.19;4476106;31;34366;-64
2022/08/24 12:34:27;;;;;;;;;;;;;;;25.62;64.58;99627.25;4465207;32;34541;-64
2022/08/24 12:37:03;;;;;;;;;;;;;;;25.96;64.18;99615.16;4478832;32;33365;-63
2022/08/24 12:39:44;;;;;;;;;;;;;;;26.08;64.28;99623.53;4472596;32;34878;-61
2022/08/24 12:42:12;;;;;;;;;;;;;;;26.14;64.60;99620.75;4464847;32;34054;-61
2022/08/24 12:44:48;;;;;;;;;;;;;;;26.00;65.39;99620.00;4471013;31;35118;-61
2022/08/24 12:47:45;;;;;;;;;;;;;;;25.96;65.56;99620.63;4464042;32;33431;-61
2022/08/24 12:50:15;;;;;;;;;;;;;;;26.08;65.27;99631.78;4457714;32;32682;-61
2022/08/24 12:52:52;;;;;;;;;;;;;;;26.07;65.68;99630.94;4472932;32;34929;-61
2022/08/24 12:55:31;;;;;;;;;;;;;;;26.30;65.07;99624.06;4477714;32;33015;-61
2022/08/24 12:58:06;;;;;;;;;;;;;;;26.02;66.69;99626.09;4467566;32;31851;-60
2022/08/24 13:00:54;;;;;;;;;;;;;;;26.26;66.10;99609.94;4469901;32;33876;-61
2022/08/24 13:03:23;;;;;;;;;;;;;;;26.20;66.37;99611.66;4466232;32;33543;-61
2022/08/24 13:05:53;;;;;;;;;;;;;;;26.40;65.53;99599.72;4468817;32;32927;-61
2022/08/24 13:08:23;;;;;;;;;;;;;;;26.25;66.34;99603.59;4471345;32;32112;-61
2022/08/24 13:10:52;;;;;;;;;;;;;;;26.38;66.23;99597.19;4466467;32;33900;-60
2022/08/24 13:13:20;;;;;;;;;;;;;;;26.39;66.50;99592.56;4463808;32;33983;-61
2022/08/24 13:15:51;;;;;;;;;;;;;;;26.28;67.74;99590.50;4474344;31;34186;-61
2022/08/24 13:18:18;;;;;;;;;;;;;;;26.41;67.42;99596.75;4477932;32;32364;-61
2022/08/24 13:20:48;;;;;;;;;;;;;;;26.53;66.99;99605.16;4469741;31;32715;-61